Time;durP1;ratioP1;P1;durP2;ratioP2;P2;SDS_P1;SDS_P2;PMS_P1;PMS_P2;Temp;Humidity;BMP_temperature;BMP_pressure;BME280_temperature;BME280_humidity;BME280_pressure;Samples;Min_cycle;Max_cycle;Signal;HPM_P1;HPM_P2
2023/07/17 00:00:24;;;;;;;4.60;2.85;;;25.60;80.00;;;;;;5111699;28;20026;-85
2023/07/17 00:02:50;;;;;;;10.23;3.05;;;25.60;80.30;;;;;;5112749;28;20028;-85
2023/07/17 00:05:16;;;;;;;11.45;3.20;;;25.60;80.80;;;;;;5094664;28;20024;-85
2023/07/17 00:07:42;;;;;;;6.10;2.53;;;25.50;80.90;;;;;;5112958;28;20031;-86
2023/07/17 00:10:10;;;;;;;5.22;3.00;;;25.50;81.40;;;;;;5112568;28;20028;-84
2023/07/17 00:12:37;;;;;;;5.93;3.42;;;25.50;81.50;;;;;;5094785;28;20039;-85
2023/07/17 00:15:06;;;;;;;4.20;2.90;;;25.40;81.50;;;;;;5115100;28;20051;-85
2023/07/17 00:17:33;;;;;;;4.63;2.50;;;25.30;81.70;;;;;;5098651;28;20411;-85
2023/07/17 00:19:59;;;;;;;8.55;2.95;;;25.30;82.10;;;;;;5116994;28;20027;-86
2023/07/17 00:22:25;;;;;;;10.23;2.55;;;25.30;82.30;;;;;;5116290;28;20515;-85
2023/07/17 00:24:51;;;;;;;5.05;2.58;;;25.30;82.70;;;;;;5098134;28;20027;-85
2023/07/17 00:27:17;;;;;;;10.15;3.55;;;25.30;82.90;;;;;;5116324;28;20012;-86
2023/07/17 00:29:44;;;;;;;5.45;2.80;;;25.30;83.00;;;;;;5097997;28;20046;-85
2023/07/17 00:32:13;;;;;;;10.23;2.78;;;25.20;83.50;;;;;;5098404;28;20104;-85
2023/07/17 00:34:40;;;;;;;3.75;2.83;;;25.20;83.80;;;;;;5116203;28;20572;-84
2023/07/17 00:37:06;;;;;;;7.72;2.40;;;25.10;84.00;;;;;;5115385;28;20045;-84
2023/07/17 00:39:32;;;;;;;5.25;2.70;;;25.00;84.20;;;;;;5096735;28;20381;-85
2023/07/17 00:41:58;;;;;;;4.72;2.83;;;25.00;84.70;;;;;;5115784;28;20023;-83
2023/07/17 00:44:23;;;;;;;7.35;3.13;;;25.00;84.90;;;;;;5115481;28;20369;-83
2023/07/17 00:46:52;;;;;;;4.93;2.35;;;25.00;85.30;;;;;;5115758;28;20062;-83
2023/07/17 00:49:22;;;;;;;4.40;3.00;;;24.90;85.60;;;;;;5096859;28;20016;-83
2023/07/17 00:51:48;;;;;;;6.57;2.85;;;24.90;86.00;;;;;;5114880;28;20492;-83
2023/07/17 00:54:14;;;;;;;3.92;2.40;;;24.80;86.20;;;;;;5115259;28;20023;-83
2023/07/17 00:56:42;;;;;;;8.45;2.50;;;24.80;86.50;;;;;;5115776;28;20032;-84
2023/07/17 00:59:08;;;;;;;4.78;3.00;;;24.70;86.90;;;;;;5115120;28;20027;-84
2023/07/17 01:01:34;;;;;;;8.50;3.03;;;24.70;87.20;;;;;;5097266;28;20035;-84
2023/07/17 01:04:04;;;;;;;8.15;2.40;;;24.70;87.10;;;;;;5115803;28;20023;-83
2023/07/17 01:06:38;;;;;;;4.72;2.55;;;24.60;87.70;;;;;;5097210;28;20024;-85
2023/07/17 01:09:04;;;;;;;6.00;2.30;;;24.60;87.60;;;;;;5115083;28;20034;-84
2023/07/17 01:11:30;;;;;;;16.60;3.30;;;24.60;87.70;;;;;;5095729;28;20408;-84
2023/07/17 01:13:56;;;;;;;5.25;2.80;;;24.60;87.80;;;;;;5096302;28;20031;-83
2023/07/17 01:16:21;;;;;;;5.38;2.35;;;24.60;88.00;;;;;;5113978;28;20118;-80
2023/07/17 01:18:47;;;;;;;3.70;2.50;;;24.60;88.20;;;;;;5095614;28;20034;-80
2023/07/17 01:21:16;;;;;;;9.65;2.90;;;24.50;88.40;;;;;;5113695;28;20024;-82
2023/07/17 01:23:42;;;;;;;5.63;2.53;;;24.60;88.80;;;;;;5095548;28;20412;-81
2023/07/17 01:26:16;;;;;;;3.38;2.78;;;24.50;89.20;;;;;;5112920;28;20019;-82
2023/07/17 01:28:42;;;;;;;11.18;3.10;;;24.50;90.00;;;;;;5095523;28;20034;-82
2023/07/17 01:31:10;;;;;;;5.05;2.63;;;24.50;90.20;;;;;;5095256;28;20666;-81
2023/07/17 01:33:35;;;;;;;3.35;2.17;;;24.40;90.50;;;;;;5113432;28;20526;-81
2023/07/17 01:36:03;;;;;;;4.75;2.45;;;24.40;90.80;;;;;;5113487;28;20020;-80
2023/07/17 01:38:29;;;;;;;4.13;2.67;;;24.30;91.10;;;;;;5113544;28;20027;-82
2023/07/17 01:40:55;;;;;;;11.65;3.20;;;24.20;91.30;;;;;;5095435;28;20027;-82
2023/07/17 01:43:21;;;;;;;7.22;2.47;;;24.20;91.40;;;;;;5095247;28;20024;-83
2023/07/17 01:45:47;;;;;;;5.90;2.60;;;24.10;91.70;;;;;;5095189;28;20027;-82
2023/07/17 01:48:14;;;;;;;6.50;2.38;;;24.10;91.90;;;;;;5113551;28;20016;-82
2023/07/17 01:50:41;;;;;;;2.95;2.20;;;24.10;91.90;;;;;;5113439;28;20106;-82
2023/07/17 01:53:07;;;;;;;3.90;2.40;;;24.10;91.30;;;;;;5094817;28;20037;-82
2023/07/17 01:55:32;;;;;;;3.28;2.38;;;24.10;91.30;;;;;;5113178;28;20024;-82
2023/07/17 01:57:58;;;;;;;3.75;2.10;;;24.20;91.20;;;;;;5113174;28;20019;-82
2023/07/17 02:00:24;;;;;;;5.47;2.58;;;24.20;91.10;;;;;;5095145;28;20042;-81
2023/07/17 02:02:50;;;;;;;2.97;2.20;;;24.20;90.80;;;;;;5112855;28;20438;-82
2023/07/17 02:05:16;;;;;;;3.80;2.10;;;24.20;90.60;;;;;;5095019;28;20024;-82
2023/07/17 02:07:42;;;;;;;5.50;2.60;;;24.20;90.80;;;;;;5112926;28;20023;-83
2023/07/17 02:10:08;;;;;;;4.35;2.08;;;24.30;90.60;;;;;;5094504;28;20080;-82
2023/07/17 02:12:34;;;;;;;4.45;2.65;;;24.30;90.70;;;;;;5113197;28;20042;-82
2023/07/17 02:15:00;;;;;;;4.43;2.28;;;24.30;90.00;;;;;;5094562;28;20110;-81
2023/07/17 02:17:26;;;;;;;4.28;2.15;;;24.40;89.00;;;;;;5112611;28;20019;-81
2023/07/17 02:19:52;;;;;;;3.95;2.58;;;24.50;88.70;;;;;;5111882;28;20035;-80
2023/07/17 02:22:17;;;;;;;4.10;2.25;;;24.50;88.50;;;;;;5094142;28;20051;-82
2023/07/17 02:24:43;;;;;;;3.50;1.92;;;24.50;88.30;;;;;;5094315;28;20110;-81
2023/07/17 02:27:09;;;;;;;6.32;2.45;;;24.50;88.20;;;;;;5112528;28;20084;-81
2023/07/17 02:29:35;;;;;;;3.33;1.98;;;24.50;88.20;;;;;;5111958;28;20130;-81
2023/07/17 02:32:01;;;;;;;6.65;2.10;;;24.50;88.30;;;;;;5112381;28;20046;-81
2023/07/17 02:34:26;;;;;;;3.38;2.10;;;24.40;88.60;;;;;;5094191;28;20024;-82
2023/07/17 02:36:53;;;;;;;4.30;2.20;;;24.30;89.30;;;;;;5111812;28;20024;-81
2023/07/17 02:39:20;;;;;;;4.03;1.70;;;24.30;89.80;;;;;;5111659;28;20104;-80
2023/07/17 02:41:46;;;;;;;4.78;2.25;;;24.30;90.10;;;;;;5094103;28;20072;-82
2023/07/17 02:44:13;;;;;;;5.18;2.20;;;24.20;90.50;;;;;;5112435;28;20110;-82
2023/07/17 02:46:39;;;;;;;4.53;2.60;;;24.10;90.70;;;;;;5112195;28;20100;-81
2023/07/17 02:49:06;;;;;;;6.32;2.83;;;24.10;90.90;;;;;;5113142;28;20063;-81
2023/07/17 02:51:32;;;;;;;5.55;2.85;;;24.00;91.20;;;;;;5111921;28;20031;-82
2023/07/17 02:53:58;;;;;;;4.63;2.30;;;24.00;91.30;;;;;;5093865;28;20498;-82
2023/07/17 02:56:24;;;;;;;5.97;2.92;;;24.00;91.50;;;;;;5093811;28;20625;-82
2023/07/17 02:58:53;;;;;;;5.60;2.42;;;23.90;91.50;;;;;;5111987;28;20032;-82
2023/07/17 03:01:20;;;;;;;15.60;3.47;;;23.90;91.90;;;;;;5112215;28;20026;-83
2023/07/17 03:03:46;;;;;;;10.20;2.45;;;23.80;92.00;;;;;;5093568;28;20024;-81
2023/07/17 03:06:12;;;;;;;4.93;1.98;;;23.80;92.10;;;;;;5111998;28;20024;-81
2023/07/17 03:08:38;;;;;;;6.13;2.58;;;23.80;92.10;;;;;;5112497;28;20523;-81
2023/07/17 03:11:04;;;;;;;3.40;2.17;;;23.80;92.00;;;;;;5093642;28;20381;-81
2023/07/17 03:13:29;;;;;;;4.32;2.33;;;23.80;92.10;;;;;;5111862;28;20510;-81
2023/07/17 03:15:58;;;;;;;7.88;2.03;;;23.80;92.10;;;;;;5111830;28;20031;-80
2023/07/17 03:18:25;;;;;;;4.40;2.30;;;23.80;92.10;;;;;;5093216;28;20032;-82
2023/07/17 03:20:51;;;;;;;5.05;2.35;;;23.80;92.00;;;;;;5111561;28;20027;-81
2023/07/17 03:23:16;;;;;;;8.77;2.42;;;23.80;91.90;;;;;;5111932;28;20392;-81
2023/07/17 03:25:42;;;;;;;7.80;2.35;;;23.80;91.80;;;;;;5093544;28;20110;-81
2023/07/17 03:28:09;;;;;;;5.13;2.15;;;23.90;91.70;;;;;;5093331;28;20033;-81
2023/07/17 03:30:35;;;;;;;4.72;2.63;;;24.00;91.60;;;;;;5093348;28;20586;-80
2023/07/17 03:33:01;;;;;;;11.45;2.42;;;24.00;91.40;;;;;;5111573;28;20118;-80
2023/07/17 03:35:26;;;;;;;5.82;3.20;;;24.00;91.40;;;;;;5093496;28;20502;-81
2023/07/17 03:37:52;;;;;;;4.65;2.15;;;24.00;91.30;;;;;;5093437;28;20419;-81
2023/07/17 03:40:18;;;;;;;5.43;2.30;;;24.10;91.20;;;;;;5093267;28;20051;-80
2023/07/17 03:42:44;;;;;;;3.28;1.95;;;24.10;91.20;;;;;;5111402;28;20078;-80
2023/07/17 03:45:10;;;;;;;4.78;2.08;;;24.20;91.10;;;;;;5092997;28;20024;-82
2023/07/17 03:47:35;;;;;;;5.18;2.25;;;24.20;91.20;;;;;;5092821;28;20114;-82
2023/07/17 03:50:01;;;;;;;3.22;2.22;;;24.30;91.10;;;;;;5114281;28;20069;-82
2023/07/17 03:52:27;;;;;;;3.85;2.10;;;24.40;91.00;;;;;;5097382;28;20092;-81
2023/07/17 03:54:52;;;;;;;5.22;2.45;;;24.40;90.90;;;;;;5115470;28;20544;-81
2023/07/17 03:57:18;;;;;;;9.98;2.50;;;24.50;91.00;;;;;;5115670;28;20094;-81
2023/07/17 03:59:52;;;;;;;8.68;2.88;;;24.50;91.00;;;;;;5097368;28;20023;-82
2023/07/17 04:02:18;;;;;;;5.18;3.08;;;24.60;91.10;;;;;;5097149;28;20028;-81
2023/07/17 04:04:43;;;;;;;8.20;3.20;;;24.70;91.80;;;;;;5097249;28;20152;-81
2023/07/17 04:07:09;;;;;;;4.90;2.65;;;24.70;92.50;;;;;;5115282;28;20110;-82
2023/07/17 04:09:35;;;;;;;6.88;2.30;;;24.60;92.80;;;;;;5115535;28;20071;-81
2023/07/17 04:12:03;;;;;;;6.20;2.50;;;24.70;93.10;;;;;;5115327;28;20399;-82
2023/07/17 04:14:33;;;;;;;5.78;2.50;;;24.70;93.10;;;;;;5115260;28;20411;-83
2023/07/17 04:16:59;;;;;;;7.97;2.50;;;24.80;93.10;;;;;;5115432;28;20106;-81
2023/07/17 04:19:26;;;;;;;5.72;3.05;;;24.80;93.20;;;;;;5096856;28;20444;-81
2023/07/17 04:21:51;;;;;;;5.00;2.60;;;24.90;93.30;;;;;;5114975;28;20036;-81
2023/07/17 04:24:17;;;;;;;4.85;2.60;;;24.90;93.60;;;;;;5115414;28;20031;-81
2023/07/17 04:26:43;;;;;;;6.30;2.53;;;25.00;93.70;;;;;;5115572;28;20032;-81
2023/07/17 04:29:10;;;;;;;8.00;2.65;;;25.10;93.80;;;;;;5097004;28;20517;-81
2023/07/17 04:31:36;;;;;;;10.02;3.67;;;25.20;93.50;;;;;;5115350;28;20044;-81
2023/07/17 04:34:02;;;;;;;5.07;2.38;;;25.30;93.30;;;;;;5096976;28;20492;-81
2023/07/17 04:36:28;;;;;;;4.68;2.63;;;25.40;93.30;;;;;;5096435;28;20046;-81
2023/07/17 04:38:53;;;;;;;4.15;2.20;;;25.50;92.90;;;;;;5114561;28;20024;-81
2023/07/17 04:41:19;;;;;;;8.80;2.45;;;25.70;92.80;;;;;;5114951;28;20079;-81
2023/07/17 04:43:45;;;;;;;5.18;2.67;;;25.80;92.60;;;;;;5096990;28;20023;-81
2023/07/17 04:46:10;;;;;;;4.43;1.98;;;25.90;92.60;;;;;;5114655;28;20024;-82
2023/07/17 04:48:36;;;;;;;7.78;2.47;;;26.00;92.40;;;;;;5114732;28;20701;-82
2023/07/17 04:51:02;;;;;;;2.80;2.08;;;26.10;92.40;;;;;;5114427;28;20028;-82
2023/07/17 04:53:28;;;;;;;11.40;3.30;;;26.30;93.00;;;;;;5096282;28;20027;-82
2023/07/17 04:55:53;;;;;;;6.60;2.47;;;26.30;93.30;;;;;;5114746;28;20019;-82
2023/07/17 04:58:19;;;;;;;5.97;2.80;;;26.50;93.20;;;;;;5096353;28;20395;-82
2023/07/17 05:00:46;;;;;;;4.10;2.92;;;26.60;93.10;;;;;;5094903;28;20020;-82
2023/07/17 05:03:13;;;;;;;4.65;2.70;;;26.70;93.10;;;;;;5114152;28;20108;-82
2023/07/17 05:05:39;;;;;;;5.32;2.55;;;26.80;92.70;;;;;;5114327;28;20040;-81
2023/07/17 05:08:05;;;;;;;4.95;2.83;;;26.90;92.60;;;;;;5096165;28;20030;-82
2023/07/17 05:10:31;;;;;;;4.68;2.58;;;27.00;92.30;;;;;;5114062;28;20035;-82
2023/07/17 05:12:59;;;;;;;3.60;2.65;;;27.10;91.70;;;;;;5114062;28;20042;-82
2023/07/17 05:15:24;;;;;;;4.00;2.72;;;27.20;91.20;;;;;;5114146;28;20614;-82
2023/07/17 05:17:50;;;;;;;3.95;2.78;;;27.30;90.90;;;;;;5114214;28;20111;-82
2023/07/17 05:20:16;;;;;;;4.80;2.63;;;27.60;90.60;;;;;;5095692;28;20119;-82
2023/07/17 05:22:41;;;;;;;5.43;2.80;;;27.80;90.30;;;;;;5095843;28;20028;-82
2023/07/17 05:25:07;;;;;;;4.60;2.85;;;28.00;89.40;;;;;;5095902;28;20038;-82
2023/07/17 05:27:33;;;;;;;10.48;2.72;;;28.20;87.70;;;;;;5095731;28;20055;-82
2023/07/17 05:29:58;;;;;;;8.90;2.67;;;28.30;87.10;;;;;;5113569;28;20077;-84
2023/07/17 05:32:24;;;;;;;4.40;2.45;;;28.40;87.00;;;;;;5113690;28;20050;-82
2023/07/17 05:34:50;;;;;;;5.30;2.80;;;28.60;87.50;;;;;;5114294;28;20092;-82
2023/07/17 05:37:18;;;;;;;3.65;2.60;;;28.70;87.40;;;;;;5095273;28;20495;-80
2023/07/17 05:39:44;;;;;;;6.20;2.28;;;28.90;86.20;;;;;;5095317;28;20020;-82
2023/07/17 05:42:10;;;;;;;4.80;2.38;;;29.10;84.50;;;;;;5113813;28;20035;-82
2023/07/17 05:44:35;;;;;;;14.77;2.88;;;29.30;82.80;;;;;;5113374;28;20399;-82
2023/07/17 05:47:01;;;;;;;4.95;2.28;;;29.50;81.50;;;;;;5095315;28;20038;-82
2023/07/17 05:49:27;;;;;;;3.78;2.28;;;29.60;80.20;;;;;;5113449;28;20447;-81
2023/07/17 05:51:53;;;;;;;9.95;3.25;;;29.70;80.70;;;;;;5095292;28;20126;-82
2023/07/17 05:54:18;;;;;;;5.57;1.95;;;30.00;81.00;;;;;;5113524;28;20028;-82
2023/07/17 05:56:44;;;;;;;3.25;1.77;;;30.20;80.80;;;;;;5113568;28;20047;-82
2023/07/17 05:59:10;;;;;;;6.07;2.40;;;30.50;79.70;;;;;;5095124;28;20020;-81
2023/07/17 06:01:35;;;;;;;5.32;2.00;;;31.10;74.80;;;;;;5113425;28;20031;-82
2023/07/17 06:04:01;;;;;;;5.32;2.00;;;32.00;68.50;;;;;;5113317;28;20464;-82
2023/07/17 06:06:26;;;;;;;8.05;1.95;;;33.10;66.00;;;;;;5113367;28;20032;-82
2023/07/17 06:08:52;;;;;;;3.58;1.90;;;34.00;63.10;;;;;;5113218;28;20049;-83
2023/07/17 06:11:18;;;;;;;2.50;1.88;;;34.80;58.80;;;;;;5112920;28;20040;-82
2023/07/17 06:13:43;;;;;;;3.42;2.00;;;35.70;56.40;;;;;;5094400;28;20108;-82
2023/07/17 06:16:09;;;;;;;3.95;2.15;;;36.60;54.10;;;;;;5112999;28;20106;-82
2023/07/17 06:18:35;;;;;;;5.85;2.35;;;37.30;51.50;;;;;;5113014;28;20100;-82
2023/07/17 06:21:01;;;;;;;5.18;3.00;;;37.90;49.50;;;;;;5094480;28;20031;-80
2023/07/17 06:23:26;;;;;;;4.32;2.30;;;38.40;48.40;;;;;;5113011;28;20027;-82
2023/07/17 06:25:52;;;;;;;3.60;2.28;;;38.80;47.60;;;;;;5094170;28;20023;-82
2023/07/17 06:28:17;;;;;;;6.80;2.10;;;39.50;45.20;;;;;;5094473;28;20483;-82
2023/07/17 06:30:49;;;;;;;6.53;2.50;;;39.60;45.10;;;;;;5094405;28;20058;-82
2023/07/17 06:33:15;;;;;;;7.63;1.95;;;39.60;43.70;;;;;;5094268;28;20100;-82
2023/07/17 06:35:43;;;;;;;5.07;1.95;;;39.80;43.20;;;;;;5094060;28;20485;-82
2023/07/17 06:38:08;;;;;;;5.35;2.40;;;39.60;43.50;;;;;;5112384;28;20423;-82
2023/07/17 06:40:35;;;;;;;4.97;2.15;;;40.00;44.40;;;;;;5112340;28;20110;-82
2023/07/17 06:43:00;;;;;;;6.47;2.03;;;40.30;43.20;;;;;;5112140;28;20046;-82
2023/07/17 06:45:26;;;;;;;7.95;2.00;;;40.30;42.70;;;;;;5112073;28;20384;-82
2023/07/17 06:47:51;;;;;;;7.45;2.05;;;40.20;42.90;;;;;;5093897;28;20579;-82
2023/07/17 06:50:17;;;;;;;4.32;2.08;;;40.10;42.60;;;;;;5094090;28;20020;-82
2023/07/17 06:52:43;;;;;;;4.90;2.10;;;40.30;42.80;;;;;;5112115;28;20092;-83
2023/07/17 06:55:09;;;;;;;5.15;2.47;;;39.70;42.90;;;;;;5093757;28;20024;-83
2023/07/17 06:57:35;;;;;;;9.90;3.08;;;39.50;44.10;;;;;;5093566;28;20035;-82
2023/07/17 07:00:01;;;;;;;6.85;2.35;;;39.90;44.00;;;;;;5112121;28;20032;-82
2023/07/17 07:02:26;;;;;;;2.92;2.10;;;40.40;42.30;;;;;;5111921;28;20507;-82
2023/07/17 07:04:52;;;;;;;3.50;2.10;;;40.20;43.20;;;;;;5093389;28;20548;-82
2023/07/17 07:07:18;;;;;;;9.73;2.40;;;40.40;42.20;;;;;;5093532;28;20027;-81
2023/07/17 07:09:43;;;;;;;8.45;2.28;;;40.50;43.00;;;;;;5111877;28;20019;-82
2023/07/17 07:12:09;;;;;;;11.80;2.58;;;40.70;42.70;;;;;;5111766;28;20032;-82
2023/07/17 07:14:35;;;;;;;4.88;2.20;;;40.70;42.30;;;;;;5093456;28;20020;-82
2023/07/17 07:17:00;;;;;;;6.90;2.45;;;40.90;42.40;;;;;;5111626;28;20032;-82
2023/07/17 07:19:26;;;;;;;4.55;2.30;;;40.90;41.60;;;;;;5093438;28;20020;-82
2023/07/17 07:21:52;;;;;;;5.28;2.25;;;40.70;41.60;;;;;;5111591;28;20050;-82
2023/07/17 07:24:18;;;;;;;4.97;2.38;;;39.90;42.60;;;;;;5092889;28;20509;-81
2023/07/17 07:26:43;;;;;;;4.57;2.38;;;39.70;42.50;;;;;;5111332;28;20019;-82
2023/07/17 07:29:09;;;;;;;8.55;2.55;;;39.00;42.70;;;;;;5111440;28;20019;-83
2023/07/17 07:31:35;;;;;;;5.35;1.88;;;38.90;44.10;;;;;;5111382;28;20032;-82
2023/07/17 07:34:00;;;;;;;3.95;2.10;;;39.50;43.90;;;;;;5093136;28;20081;-82
2023/07/17 07:36:28;;;;;;;5.50;3.60;;;39.70;43.90;;;;;;5111301;28;20026;-82
2023/07/17 07:38:54;;;;;;;6.28;2.13;;;39.90;44.60;;;;;;5092766;28;20059;-82
2023/07/17 07:41:20;;;;;;;8.25;2.58;;;39.60;42.80;;;;;;5111599;28;20410;-82
2023/07/17 07:43:46;;;;;;;7.57;2.67;;;39.90;43.50;;;;;;5111530;28;20016;-82
2023/07/17 07:46:11;;;;;;;5.50;2.65;;;39.90;42.60;;;;;;5111359;28;20034;-82
2023/07/17 07:48:37;;;;;;;4.15;2.25;;;39.70;42.00;;;;;;5093140;28;20248;-83
2023/07/17 07:51:03;;;;;;;5.03;2.20;;;39.40;42.60;;;;;;5111046;28;20030;-82
2023/07/17 07:53:29;;;;;;;3.55;1.90;;;39.20;42.70;;;;;;5093148;28;20034;-82
2023/07/17 07:55:55;;;;;;;5.40;2.20;;;39.20;41.90;;;;;;5092979;28;20027;-82
2023/07/17 07:58:21;;;;;;;4.55;2.30;;;39.00;41.70;;;;;;5110881;28;20026;-82
2023/07/17 08:00:46;;;;;;;5.60;2.38;;;39.00;42.80;;;;;;5093270;28;20053;-82
2023/07/17 08:03:12;;;;;;;8.25;2.25;;;39.30;43.40;;;;;;5111185;28;20484;-83
2023/07/17 08:05:38;;;;;;;8.52;2.72;;;39.70;43.00;;;;;;5111224;28;20029;-82
2023/07/17 08:08:04;;;;;;;6.75;2.35;;;39.70;40.90;;;;;;5110889;28;20565;-82
2023/07/17 08:10:29;;;;;;;6.93;3.22;;;39.70;42.10;;;;;;5110648;28;20039;-81
2023/07/17 08:12:55;;;;;;;6.28;3.22;;;39.50;41.20;;;;;;5092519;28;20511;-82
2023/07/17 08:15:21;;;;;;;6.40;2.50;;;39.30;41.60;;;;;;5093012;28;20019;-82
2023/07/17 08:17:47;;;;;;;5.40;2.80;;;39.20;41.60;;;;;;5110662;28;20100;-82
2023/07/17 08:20:13;;;;;;;11.32;3.65;;;39.30;41.50;;;;;;5110783;28;20531;-82
2023/07/17 08:22:39;;;;;;;5.80;2.60;;;39.00;42.20;;;;;;5092565;28;20114;-82
2023/07/17 08:25:05;;;;;;;10.23;2.95;;;38.90;42.30;;;;;;5110725;28;20115;-82
2023/07/17 08:27:30;;;;;;;9.32;3.00;;;38.80;43.30;;;;;;5110777;28;20027;-82
2023/07/17 08:29:56;;;;;;;5.55;2.72;;;38.60;42.30;;;;;;5110814;28;20040;-81
2023/07/17 08:32:22;;;;;;;6.80;2.95;;;38.80;43.30;;;;;;5092449;28;20036;-81
2023/07/17 08:34:47;;;;;;;8.15;3.20;;;38.80;42.50;;;;;;5111217;28;20024;-82
2023/07/17 08:37:13;;;;;;;6.10;3.33;;;38.60;42.60;;;;;;5114600;28;20100;-81
2023/07/17 08:39:39;;;;;;;5.70;2.90;;;38.70;42.80;;;;;;5114839;28;20062;-82
2023/07/17 08:42:06;;;;;;;5.85;3.25;;;38.70;44.00;;;;;;5114940;28;20038;-81
2023/07/17 08:44:33;;;;;;;5.43;3.03;;;38.80;43.50;;;;;;5096112;28;20399;-82
2023/07/17 08:47:01;;;;;;;5.30;2.92;;;38.80;43.90;;;;;;5114520;28;20023;-81
2023/07/17 08:49:27;;;;;;;6.60;2.97;;;38.30;44.30;;;;;;5114666;28;20068;-81
2023/07/17 08:51:56;;;;;;;4.22;2.80;;;38.30;44.50;;;;;;5096279;28;20035;-83
2023/07/17 08:54:22;;;;;;;14.05;4.30;;;38.30;45.00;;;;;;5114618;28;20092;-81
2023/07/17 08:56:49;;;;;;;4.82;3.67;;;38.20;44.70;;;;;;5114520;28;20027;-81
2023/07/17 08:59:16;;;;;;;6.25;4.00;;;38.40;44.60;;;;;;5096145;28;20519;-82
2023/07/17 09:01:42;;;;;;;7.63;3.55;;;38.50;44.70;;;;;;5096033;28;20492;-82
2023/07/17 09:04:09;;;;;;;5.65;3.05;;;38.50;45.00;;;;;;5096059;28;20019;-82
2023/07/17 09:06:35;;;;;;;7.07;3.45;;;38.40;45.60;;;;;;5114116;28;20514;-82
2023/07/17 09:09:01;;;;;;;7.13;3.28;;;38.60;45.80;;;;;;5096363;28;20031;-82
2023/07/17 09:11:26;;;;;;;11.23;3.75;;;38.70;46.60;;;;;;5114071;28;20035;-81
2023/07/17 09:13:52;;;;;;;6.40;3.88;;;38.80;45.50;;;;;;5095938;28;20027;-82
2023/07/17 09:16:21;;;;;;;11.27;4.30;;;38.90;45.40;;;;;;5114178;28;20054;-82
2023/07/17 09:18:48;;;;;;;8.10;3.60;;;39.20;45.70;;;;;;5113830;28;20590;-82
2023/07/17 09:21:15;;;;;;;6.70;4.28;;;39.10;44.70;;;;;;5095413;28;20384;-82
2023/07/17 09:23:45;;;;;;;7.30;4.30;;;39.10;45.80;;;;;;5113969;28;20024;-82
2023/07/17 09:26:16;;;;;;;7.75;4.68;;;39.10;46.10;;;;;;5095814;28;20114;-82
2023/07/17 09:28:49;;;;;;;8.63;3.58;;;38.80;46.40;;;;;;5095265;28;20031;-81
2023/07/17 09:31:26;;;;;;;8.98;4.22;;;38.70;46.50;;;;;;5113539;28;20035;-83
2023/07/17 09:33:53;;;;;;;7.05;3.90;;;38.80;47.10;;;;;;5113821;28;20500;-82
2023/07/17 09:36:19;;;;;;;11.63;3.40;;;39.10;47.10;;;;;;5095556;28;20080;-82
2023/07/17 09:38:49;;;;;;;8.07;3.67;;;39.20;46.90;;;;;;5113679;28;20024;-83
2023/07/17 09:41:20;;;;;;;15.15;3.78;;;39.30;46.60;;;;;;5113598;28;20377;-83
2023/07/17 09:44:04;;;;;;;7.57;3.05;;;39.10;47.80;;;;;;5113754;28;20022;-82
2023/07/17 09:46:49;;;;;;;7.50;3.22;;;38.70;47.80;;;;;;5112865;28;20077;-82
2023/07/17 09:49:15;;;;;;;4.63;3.17;;;38.40;47.90;;;;;;5108878;28;20024;-82
2023/07/17 09:51:40;;;;;;;7.32;3.50;;;38.50;48.40;;;;;;5113523;28;20055;-82
2023/07/17 09:54:06;;;;;;;5.93;3.88;;;38.60;48.30;;;;;;5113605;28;20085;-82
2023/07/17 09:56:33;;;;;;;13.38;3.75;;;38.60;47.60;;;;;;5094862;28;20088;-80
2023/07/17 09:59:13;;;;;;;6.85;3.85;;;38.50;47.00;;;;;;5094879;28;20028;-81
2023/07/17 10:01:44;;;;;;;4.10;3.35;;;38.60;47.30;;;;;;5094809;28;20039;-84
2023/07/17 10:04:11;;;;;;;4.43;3.03;;;38.60;48.20;;;;;;5113250;28;20106;-82
2023/07/17 10:06:38;;;;;;;10.90;3.75;;;38.80;48.20;;;;;;5095031;28;20024;-82
2023/07/17 10:09:09;;;;;;;12.13;4.60;;;38.80;47.10;;;;;;5095035;28;20119;-81
2023/07/17 10:11:35;;;;;;;5.68;3.75;;;38.10;46.60;;;;;;5113126;28;20488;-81
2023/07/17 10:14:02;;;;;;;8.70;5.13;;;37.80;48.20;;;;;;5113182;28;20027;-82
2023/07/17 10:16:28;;;;;;;25.70;6.15;;;37.40;49.00;;;;;;5112884;28;20026;-82
2023/07/17 10:18:55;;;;;;;8.68;5.10;;;37.20;49.00;;;;;;5094672;28;20023;-82
2023/07/17 10:21:22;;;;;;;10.40;5.00;;;36.60;49.30;;;;;;5094611;28;20027;-81
2023/07/17 10:23:49;;;;;;;16.13;5.13;;;36.40;50.50;;;;;;5094480;28;20028;-82
2023/07/17 10:26:21;;;;;;;8.45;4.97;;;36.40;50.60;;;;;;5112674;28;20117;-82
2023/07/17 10:28:49;;;;;;;12.10;4.90;;;36.50;50.50;;;;;;5112342;28;20083;-81
2023/07/17 10:31:21;;;;;;;12.75;4.47;;;36.60;50.10;;;;;;5094246;28;20055;-81
2023/07/17 10:33:58;;;;;;;18.27;5.65;;;36.70;50.30;;;;;;5112574;28;20089;-81
2023/07/17 10:36:56;;;;;;;13.15;4.97;;;36.70;49.90;;;;;;5112630;28;20020;-82
2023/07/17 10:39:28;;;;;;;13.70;4.22;;;36.70;49.80;;;;;;5061122;28;20032;-82
2023/07/17 10:41:54;;;;;;;11.25;4.68;;;36.40;50.10;;;;;;5112506;28;20054;-82
2023/07/17 10:44:20;;;;;;;9.70;4.85;;;36.20;51.40;;;;;;5094236;28;20055;-82
2023/07/17 10:46:46;;;;;;;8.85;4.20;;;36.30;52.10;;;;;;5112421;28;20020;-81
2023/07/17 10:49:15;;;;;;;13.52;5.10;;;36.10;52.30;;;;;;5112379;28;20035;-81
2023/07/17 10:51:46;;;;;;;8.55;5.03;;;36.00;50.90;;;;;;5112313;28;20020;-82
2023/07/17 10:54:12;;;;;;;9.10;5.03;;;35.90;52.00;;;;;;5093921;28;20035;-81
2023/07/17 10:56:38;;;;;;;10.85;4.55;;;35.90;52.30;;;;;;5094018;28;20751;-81
2023/07/17 10:59:04;;;;;;;14.77;6.20;;;35.80;52.40;;;;;;5111014;28;20030;-81
2023/07/17 11:01:31;;;;;;;16.67;5.75;;;35.60;52.20;;;;;;5094050;28;20128;-82
2023/07/17 11:03:56;;;;;;;11.13;4.95;;;35.40;52.60;;;;;;5112002;28;20074;-82
2023/07/17 11:06:25;;;;;;;9.70;5.35;;;35.40;53.40;;;;;;5093777;28;20495;-82
2023/07/17 11:08:52;;;;;;;22.42;5.45;;;35.50;53.40;;;;;;5112264;28;20484;-81
2023/07/17 11:11:18;;;;;;;14.55;5.28;;;35.70;53.00;;;;;;5093869;28;20020;-82
2023/07/17 11:13:49;;;;;;;16.00;5.30;;;35.60;52.90;;;;;;5093833;28;20042;-82
2023/07/17 11:16:16;;;;;;;14.15;5.85;;;35.40;53.30;;;;;;5111720;28;20110;-82
2023/07/17 11:18:54;;;;;;;7.10;4.78;;;35.20;54.40;;;;;;5111582;28;20020;-81
2023/07/17 11:21:24;;;;;;;8.50;4.38;;;35.30;55.00;;;;;;5093384;28;20024;-81
2023/07/17 11:23:55;;;;;;;10.20;5.45;;;35.10;55.10;;;;;;5111729;28;20024;-79
2023/07/17 11:26:26;;;;;;;19.17;4.93;;;35.00;55.40;;;;;;5093256;28;20027;-81
2023/07/17 11:28:54;;;;;;;12.90;5.47;;;35.00;55.40;;;;;;5111622;28;20152;-80
2023/07/17 11:31:27;;;;;;;12.57;4.72;;;34.90;57.10;;;;;;5111426;28;20051;-81
2023/07/17 11:34:00;;;;;;;9.80;5.13;;;34.90;56.10;;;;;;5111600;28;20038;-81
2023/07/17 11:36:38;;;;;;;13.55;4.40;;;34.80;55.90;;;;;;5111600;28;20031;-82
2023/07/17 11:39:21;;;;;;;13.18;4.88;;;35.00;55.00;;;;;;5111556;28;20489;-82
2023/07/17 11:41:49;;;;;;;12.25;4.40;;;35.00;54.80;;;;;;5111447;28;20027;-81
2023/07/17 11:44:26;;;;;;;8.98;4.25;;;35.10;55.10;;;;;;5093302;28;20024;-81
2023/07/17 11:47:06;;;;;;;7.72;4.75;;;35.30;54.90;;;;;;5093324;28;20027;-81
2023/07/17 11:49:34;;;;;;;10.48;5.15;;;35.40;53.50;;;;;;5111489;28;20027;-82
2023/07/17 11:52:01;;;;;;;13.50;4.65;;;35.40;53.90;;;;;;5093112;28;20165;-81
2023/07/17 11:54:38;;;;;;;14.70;4.30;;;35.50;54.00;;;;;;5093311;28;20027;-82
2023/07/17 11:57:04;;;;;;;8.98;4.22;;;35.20;53.50;;;;;;5093123;28;20020;-80
2023/07/17 11:59:30;;;;;;;15.05;5.18;;;35.00;53.90;;;;;;5111367;28;20023;-82
2023/07/17 12:01:56;;;;;;;8.02;4.50;;;34.80;54.20;;;;;;5111166;28;20024;-81
2023/07/17 12:04:24;;;;;;;14.70;5.95;;;34.80;55.60;;;;;;5111115;28;20039;-81
2023/07/17 12:06:50;;;;;;;11.10;5.30;;;34.90;56.20;;;;;;5093067;28;20054;-81
2023/07/17 12:09:16;;;;;;;8.10;4.25;;;34.90;55.40;;;;;;5111116;28;20406;-81
2023/07/17 12:11:43;;;;;;;21.15;4.70;;;34.80;54.30;;;;;;5096767;28;20032;-82
2023/07/17 12:14:09;;;;;;;9.85;4.60;;;34.80;54.50;;;;;;5115080;28;20076;-80
2023/07/17 12:16:35;;;;;;;8.70;4.50;;;34.80;55.50;;;;;;5115291;28;20031;-82
2023/07/17 12:19:01;;;;;;;8.57;4.82;;;34.80;53.80;;;;;;5097178;28;20474;-81
2023/07/17 12:21:26;;;;;;;14.30;4.90;;;34.80;54.20;;;;;;5115197;28;20020;-82
2023/07/17 12:23:52;;;;;;;6.15;4.18;;;34.80;54.80;;;;;;5096790;28;20023;-81
2023/07/17 12:26:18;;;;;;;17.35;4.63;;;34.80;55.10;;;;;;5096371;28;20461;-82
2023/07/17 12:28:45;;;;;;;12.10;3.97;;;34.70;55.40;;;;;;5096372;28;20032;-81
2023/07/17 12:31:10;;;;;;;9.35;4.85;;;34.70;56.80;;;;;;5114829;28;20046;-81
2023/07/17 12:33:36;;;;;;;10.15;4.88;;;34.80;56.10;;;;;;5096721;28;20031;-82
2023/07/17 12:36:02;;;;;;;10.30;4.53;;;34.70;55.70;;;;;;5115176;28;20027;-81
2023/07/17 12:38:27;;;;;;;11.77;4.80;;;34.80;56.60;;;;;;5096209;28;20549;-81
2023/07/17 12:40:53;;;;;;;8.50;4.43;;;34.80;56.20;;;;;;5096247;28;20046;-82
2023/07/17 12:43:19;;;;;;;8.85;5.47;;;34.80;56.40;;;;;;5114760;28;20433;-82